RJNS(METAR)
12/04 21:00
METAR RJNS 041200Z 27015KT 9999 FEW025 SCT120 BKN130 12/02 Q1018 RMK
1CU025 3AC120 6AC130 A3008=
戻る
トップページへ戻る
IMOC Co,.Ltd.